createdAt,value
2022-10-07T00:01:07.509Z,5.55
2022-10-07T00:03:36.017Z,9.27
2022-10-07T00:06:06.295Z,9.30
2022-10-07T00:08:36.820Z,8.35
2022-10-07T00:11:09.037Z,7.90
2022-10-07T00:13:38.898Z,6.65
2022-10-07T00:16:08.461Z,4.63
2022-10-07T00:18:37.120Z,8.63
2022-10-07T00:21:07.095Z,4.53
2022-10-07T00:23:35.860Z,6.93
2022-10-07T00:26:06.777Z,4.53
2022-10-07T00:28:36.320Z,5.00
2022-10-07T00:31:06.389Z,6.75
2022-10-07T00:33:36.967Z,6.25
2022-10-07T00:36:08.538Z,4.57
2022-10-07T00:38:36.511Z,5.70
2022-10-07T00:41:05.893Z,10.25
2022-10-07T00:43:34.441Z,5.20
2022-10-07T00:46:08.930Z,7.63
2022-10-07T00:48:39.208Z,6.35
2022-10-07T00:51:09.349Z,5.35
2022-10-07T00:53:40.565Z,6.03
2022-10-07T00:56:11.541Z,4.95
2022-10-07T00:58:42.727Z,5.15
2022-10-07T01:01:12.155Z,4.85
2022-10-07T01:03:42.541Z,4.03
2022-10-07T01:06:11.069Z,4.72
2022-10-07T01:08:42.267Z,5.67
2022-10-07T01:11:23.182Z,5.35
2022-10-07T01:14:03.767Z,8.23
2022-10-07T01:16:38.732Z,6.90
2022-10-07T01:19:19.406Z,6.90
2022-10-07T01:22:02.389Z,6.90
2022-10-07T01:24:38.966Z,6.50
2022-10-07T01:27:11.727Z,7.43
2022-10-07T01:29:43.431Z,5.78
2022-10-07T01:32:17.445Z,6.45
2022-10-07T01:34:47.638Z,7.20
2022-10-07T01:37:18.876Z,5.22
2022-10-07T01:39:51.200Z,9.02
2022-10-07T01:42:21.732Z,9.13
2022-10-07T01:44:55.204Z,9.15
2022-10-07T01:47:23.347Z,6.30
2022-10-07T01:49:51.275Z,7.47
2022-10-07T01:52:37.971Z,6.03
2022-10-07T01:55:19.934Z,7.75
2022-10-07T01:58:00.525Z,8.80
2022-10-07T02:00:29.333Z,8.70
2022-10-07T02:03:21.462Z,7.70
2022-10-07T02:05:54.684Z,7.22
2022-10-07T02:08:35.157Z,8.30
2022-10-07T02:11:13.213Z,7.33
2022-10-07T02:13:57.919Z,5.60
2022-10-07T02:16:33.666Z,7.60
2022-10-07T02:19:05.567Z,8.05
2022-10-07T02:21:36.982Z,7.80
2022-10-07T02:24:06.553Z,5.10
2022-10-07T02:26:36.876Z,7.05
2022-10-07T02:29:11.000Z,5.43
2022-10-07T03:16:55.006Z,9.90
2022-10-07T03:19:23.411Z,10.43
2022-10-07T03:21:55.187Z,7.68
2022-10-07T04:36:36.189Z,9.45
2022-10-07T04:39:16.068Z,11.65
2022-10-07T04:41:54.762Z,12.93
2022-10-07T04:44:27.194Z,9.57
2022-10-07T04:47:00.581Z,7.93
2022-10-07T04:49:31.158Z,6.37
2022-10-07T04:52:00.936Z,10.60
2022-10-07T04:54:34.167Z,9.20
2022-10-07T04:57:03.533Z,13.13
2022-10-07T04:59:34.403Z,9.82
2022-10-07T05:02:03.028Z,11.65
2022-10-07T05:04:33.353Z,11.07
2022-10-07T05:07:03.120Z,9.68
2022-10-07T05:09:32.360Z,10.52
2022-10-07T05:12:01.280Z,9.93
2022-10-07T05:14:32.905Z,10.27
2022-10-07T05:17:01.448Z,15.05
2022-10-07T05:19:33.833Z,10.23
2022-10-07T05:22:03.028Z,8.02
2022-10-07T05:24:31.839Z,9.30
2022-10-07T05:27:01.124Z,10.05
2022-10-07T05:29:29.093Z,12.53
2022-10-07T05:32:03.913Z,13.10
2022-10-07T05:34:33.597Z,9.38
2022-10-07T05:37:01.566Z,11.63
2022-10-07T05:39:29.537Z,10.02
2022-10-07T05:42:04.171Z,11.50
2022-10-07T05:44:38.321Z,12.73
2022-10-07T05:47:08.705Z,5.93
2022-10-07T05:49:37.631Z,13.15
2022-10-07T05:52:06.334Z,13.30
2022-10-07T05:54:34.868Z,13.07
2022-10-07T05:57:04.018Z,10.55
2022-10-07T05:59:32.188Z,10.95
2022-10-07T06:02:01.141Z,11.82
2022-10-07T06:04:31.749Z,14.27
2022-10-07T06:07:00.560Z,13.70
2022-10-07T06:09:46.856Z,12.65
2022-10-07T06:12:34.807Z,12.70
2022-10-07T06:15:09.527Z,11.87
2022-10-07T06:17:41.726Z,12.13
2022-10-07T06:20:12.080Z,14.20
2022-10-07T06:22:40.711Z,11.50
2022-10-07T06:25:09.868Z,13.70
2022-10-07T06:27:38.250Z,10.60
2022-10-07T06:30:07.583Z,9.55
2022-10-07T06:32:35.586Z,8.85
2022-10-07T06:35:04.021Z,7.82
2022-10-07T06:37:33.983Z,6.88
2022-10-07T06:40:02.643Z,8.32
2022-10-07T06:42:33.886Z,6.28
2022-10-07T06:45:31.530Z,9.82
2022-10-07T06:48:00.366Z,8.02
2022-10-07T06:50:29.233Z,7.72
2022-10-07T06:52:59.799Z,9.23
2022-10-07T06:55:30.223Z,10.48
2022-10-07T06:57:58.407Z,9.57
2022-10-07T07:00:27.497Z,5.70
2022-10-07T07:02:55.797Z,9.85
2022-10-07T07:05:24.275Z,10.50
2022-10-07T07:07:52.527Z,8.48
2022-10-07T07:10:21.800Z,6.78
2022-10-07T07:12:54.025Z,9.80
2022-10-07T07:15:22.591Z,9.82
2022-10-07T07:17:50.674Z,8.30
2022-10-07T07:20:19.379Z,10.57
2022-10-07T07:22:48.619Z,10.57
2022-10-07T07:25:16.923Z,12.27
2022-10-07T07:27:49.563Z,8.85
2022-10-07T07:30:23.453Z,8.88
2022-10-07T07:32:53.198Z,9.23
2022-10-07T07:35:21.385Z,12.05
2022-10-07T07:37:50.410Z,10.88
2022-10-07T07:40:20.290Z,10.87
2022-10-07T07:42:50.043Z,9.93
2022-10-07T07:45:19.399Z,11.45
2022-10-07T07:47:49.489Z,9.93
2022-10-07T07:50:20.811Z,11.38
2022-10-07T07:52:52.901Z,11.63
2022-10-07T07:55:24.593Z,9.15
2022-10-07T07:57:59.462Z,11.83
2022-10-07T08:00:27.456Z,10.90
2022-10-07T08:03:03.652Z,7.80
2022-10-07T08:05:35.261Z,9.32
2022-10-07T08:08:03.849Z,10.77
2022-10-07T08:10:31.850Z,11.55
2022-10-07T08:13:01.601Z,11.60
2022-10-07T08:15:30.028Z,10.03
2022-10-07T08:17:58.131Z,7.63
2022-10-07T08:20:26.404Z,12.23
2022-10-07T08:22:58.893Z,8.52
2022-10-07T08:25:29.608Z,8.15
2022-10-07T08:27:59.868Z,11.02
2022-10-07T08:30:29.688Z,11.38
2022-10-07T08:33:01.164Z,11.77
2022-10-07T08:35:29.487Z,8.60
2022-10-07T08:37:57.419Z,10.93
2022-10-07T08:40:25.431Z,9.38
2022-10-07T08:42:54.624Z,8.60
2022-10-07T08:45:31.874Z,10.32
2022-10-07T08:48:03.519Z,8.88
2022-10-07T08:50:48.800Z,6.05
2022-10-07T08:53:21.125Z,7.90
2022-10-07T08:55:55.410Z,8.32
2022-10-07T08:58:43.324Z,9.20
2022-10-07T09:01:23.504Z,9.23
2022-10-07T09:04:02.599Z,7.85
2022-10-07T09:06:34.507Z,8.70
2022-10-07T09:09:07.173Z,8.67
2022-10-07T09:11:36.003Z,9.02
2022-10-07T09:14:14.965Z,7.75
2022-10-07T09:16:47.696Z,10.75
2022-10-07T09:19:22.570Z,10.10
2022-10-07T09:21:51.946Z,8.47
2022-10-07T09:24:23.191Z,9.35
2022-10-07T09:26:55.137Z,11.27
2022-10-07T09:29:26.473Z,8.77
2022-10-07T09:31:56.872Z,11.52
2022-10-07T09:34:27.411Z,7.63
2022-10-07T09:37:26.609Z,11.90
2022-10-07T09:39:57.260Z,11.13
2022-10-07T09:42:32.370Z,9.40
2022-10-07T09:45:05.311Z,11.60
2022-10-07T09:47:40.269Z,11.52
2022-10-07T09:50:34.666Z,10.35
2022-10-07T09:53:03.038Z,13.13
2022-10-07T09:55:39.798Z,12.02
2022-10-07T09:58:18.349Z,11.27
2022-10-07T10:00:48.022Z,8.93
2022-10-07T10:03:18.660Z,9.05
2022-10-07T10:05:57.478Z,10.75
2022-10-07T10:08:29.098Z,10.95
2022-10-07T10:10:58.779Z,10.50
2022-10-07T10:13:30.911Z,9.18
2022-10-07T10:16:00.209Z,11.30
2022-10-07T10:18:33.327Z,7.97
2022-10-07T10:21:22.997Z,10.30
2022-10-07T10:23:52.927Z,9.23
2022-10-07T10:26:43.434Z,10.20
2022-10-07T10:29:25.436Z,10.17
2022-10-07T10:32:09.763Z,10.32
2022-10-07T10:34:48.993Z,9.48
2022-10-07T10:37:21.294Z,13.18
2022-10-07T10:39:59.298Z,10.35
2022-10-07T10:42:38.639Z,9.07
2022-10-07T10:45:18.362Z,10.32
2022-10-07T10:48:05.940Z,8.80
2022-10-07T10:50:43.647Z,10.45
2022-10-07T10:53:22.966Z,14.32
2022-10-07T10:56:04.496Z,14.23
2022-10-07T10:58:44.273Z,11.30
2022-10-07T11:01:21.907Z,10.38
2022-10-07T11:04:05.625Z,10.05
2022-10-07T11:06:38.613Z,12.25
2022-10-07T11:09:15.722Z,9.00
2022-10-07T11:11:45.447Z,10.27
2022-10-07T11:14:17.740Z,10.70
2022-10-07T11:16:50.444Z,9.40
2022-10-07T11:19:22.223Z,9.77
2022-10-07T11:21:53.571Z,10.95
2022-10-07T11:24:26.656Z,10.43
2022-10-07T11:26:58.763Z,11.40
2022-10-07T11:29:32.999Z,11.10
2022-10-07T11:32:08.068Z,8.00
2022-10-07T11:34:45.019Z,9.60
2022-10-07T11:37:22.478Z,9.93
2022-10-07T11:39:51.239Z,8.40
2022-10-07T11:42:23.770Z,8.82
2022-10-07T11:45:00.307Z,9.70
2022-10-07T11:47:34.972Z,8.55
2022-10-07T11:50:08.849Z,6.80
2022-10-07T11:52:42.802Z,7.25
2022-10-07T11:55:19.976Z,10.30
2022-10-07T11:57:54.741Z,10.02
2022-10-07T12:00:28.652Z,9.10
2022-10-07T12:02:57.197Z,10.07
2022-10-07T12:06:03.779Z,9.57
2022-10-07T12:08:36.587Z,12.48
2022-10-07T12:11:44.883Z,9.68
2022-10-07T12:14:41.174Z,9.43
2022-10-07T12:17:20.837Z,11.10
2022-10-07T12:20:08.798Z,14.20
2022-10-07T12:22:36.843Z,12.40
2022-10-07T12:25:42.559Z,9.38
2022-10-07T12:28:17.041Z,10.15
2022-10-07T12:30:51.994Z,11.77
2022-10-07T12:33:34.180Z,11.02
2022-10-07T12:36:35.361Z,10.17
2022-10-07T12:39:35.865Z,14.20
2022-10-07T12:42:08.795Z,8.48
2022-10-07T12:44:40.643Z,11.65
2022-10-07T12:47:24.130Z,11.15
2022-10-07T12:49:58.549Z,11.27
2022-10-07T12:52:40.943Z,10.75
2022-10-07T12:55:11.501Z,10.18
2022-10-07T12:57:43.502Z,10.90
2022-10-07T13:00:15.367Z,9.10
2022-10-07T13:03:36.171Z,15.77
2022-10-07T13:06:26.227Z,7.70
2022-10-07T13:09:25.429Z,9.80
2022-10-07T13:12:13.906Z,10.63
2022-10-07T13:14:54.154Z,8.52
2022-10-07T13:17:32.783Z,6.07
2022-10-07T13:20:15.711Z,5.00
2022-10-07T13:22:47.782Z,6.53
2022-10-07T13:25:18.949Z,6.15
2022-10-07T13:27:53.547Z,5.57
2022-10-07T13:30:36.978Z,7.78
2022-10-07T13:33:26.525Z,8.48
2022-10-07T13:36:07.835Z,7.70
2022-10-07T13:38:36.034Z,6.00
2022-10-07T13:41:09.276Z,9.05
2022-10-07T13:43:38.685Z,10.13
2022-10-07T13:46:11.334Z,8.30
2022-10-07T13:48:45.665Z,10.75
2022-10-07T13:51:20.359Z,10.63
2022-10-07T13:53:54.459Z,12.63
2022-10-07T13:56:25.984Z,10.68
2022-10-07T13:58:55.726Z,11.30
2022-10-07T14:01:28.391Z,11.57
2022-10-07T14:04:18.875Z,10.43
2022-10-07T14:06:52.725Z,9.43
2022-10-07T14:09:26.219Z,9.52
2022-10-07T14:11:58.442Z,6.40
2022-10-07T14:14:29.044Z,12.95
2022-10-07T14:17:00.271Z,6.07
2022-10-07T14:19:32.871Z,7.53
2022-10-07T14:22:03.570Z,10.53
2022-10-07T14:24:32.559Z,10.75
2022-10-07T14:27:00.535Z,9.50
2022-10-07T14:29:47.102Z,9.38
2022-10-07T14:32:39.684Z,7.95
2022-10-07T14:35:21.749Z,11.32
2022-10-07T14:37:49.761Z,7.55
2022-10-07T14:40:20.175Z,7.43
2022-10-07T14:42:48.756Z,8.57
2022-10-07T14:45:18.479Z,12.83
2022-10-07T14:47:47.803Z,9.80
2022-10-07T14:50:16.395Z,7.95
2022-10-07T14:52:47.722Z,6.10
2022-10-07T14:55:22.088Z,8.95
2022-10-07T14:57:50.571Z,8.07
2022-10-07T15:00:21.119Z,7.60
2022-10-07T15:02:51.449Z,12.77
2022-10-07T15:05:19.874Z,10.07
2022-10-07T15:07:47.870Z,7.07
2022-10-07T15:10:18.154Z,7.30
2022-10-07T15:12:46.812Z,8.77
2022-10-07T15:15:15.905Z,7.15
2022-10-07T15:17:44.740Z,5.07
2022-10-07T15:20:15.812Z,6.27
2022-10-07T15:22:45.396Z,7.40
2022-10-07T15:25:15.358Z,8.77
2022-10-07T15:27:43.769Z,5.50
2022-10-07T15:30:13.288Z,5.00
2022-10-07T15:32:41.240Z,4.05
2022-10-07T15:35:09.707Z,4.50
2022-10-07T15:37:39.405Z,4.07
2022-10-07T15:40:08.871Z,5.80
2022-10-07T15:42:36.853Z,4.38
2022-10-07T15:45:05.675Z,5.85
2022-10-07T15:47:34.522Z,3.75
2022-10-07T15:50:02.429Z,6.45
2022-10-07T15:52:30.363Z,4.78
2022-10-07T15:55:03.709Z,4.03
2022-10-07T15:57:34.538Z,2.93
2022-10-07T16:00:02.668Z,2.95
2022-10-07T16:02:39.856Z,2.30
2022-10-07T16:05:09.479Z,3.08
2022-10-07T16:07:37.739Z,1.83
2022-10-07T16:10:12.812Z,1.98
2022-10-07T16:12:41.149Z,4.07
2022-10-07T16:15:09.580Z,2.35
2022-10-07T16:17:37.551Z,2.20
2022-10-07T16:20:11.027Z,3.17
2022-10-07T16:22:39.368Z,1.80
2022-10-07T16:25:09.340Z,2.95
2022-10-07T16:27:51.243Z,1.58
2022-10-07T16:30:36.627Z,3.00
2022-10-07T16:33:04.585Z,3.20
2022-10-07T16:35:32.491Z,2.03
2022-10-07T16:38:01.013Z,2.47
2022-10-07T16:40:30.280Z,2.43
2022-10-07T16:42:59.622Z,2.43
2022-10-07T16:45:27.794Z,2.00
2022-10-07T16:47:56.344Z,1.50
2022-10-07T16:50:24.338Z,4.13
2022-10-07T16:52:52.316Z,1.83
2022-10-07T16:55:20.271Z,2.55
2022-10-07T16:57:49.765Z,2.33
2022-10-07T17:00:18.027Z,2.10
2022-10-07T17:02:45.982Z,1.77
2022-10-07T17:05:13.864Z,2.73
2022-10-07T17:07:41.773Z,3.30
2022-10-07T17:10:10.609Z,2.10
2022-10-07T17:12:38.827Z,2.77
2022-10-07T17:15:09.323Z,4.32
2022-10-07T17:17:37.295Z,2.25
2022-10-07T17:20:05.706Z,2.63
2022-10-07T17:22:34.037Z,2.22
2022-10-07T17:25:03.927Z,3.60
2022-10-07T17:27:31.815Z,2.30
2022-10-07T17:29:59.720Z,2.47
2022-10-07T17:32:29.415Z,2.35
2022-10-07T17:34:57.367Z,2.08
2022-10-07T17:37:26.178Z,3.10
2022-10-07T17:39:54.076Z,1.80
2022-10-07T17:42:21.946Z,1.90
2022-10-07T17:44:49.885Z,2.30
2022-10-07T17:47:17.829Z,2.47
2022-10-07T17:49:47.341Z,1.95
2022-10-07T17:52:15.332Z,4.13
2022-10-07T17:54:43.221Z,1.80
2022-10-07T17:57:11.140Z,3.47
2022-10-07T17:59:39.824Z,2.83
2022-10-07T18:02:07.801Z,2.75
2022-10-07T18:04:36.487Z,2.88
2022-10-07T18:07:05.838Z,1.77
2022-10-07T18:09:33.765Z,2.70
2022-10-07T18:12:19.137Z,2.17
2022-10-07T18:15:04.494Z,2.25
2022-10-07T18:17:32.583Z,2.77
2022-10-07T18:20:01.006Z,1.83
2022-10-07T18:22:30.363Z,2.60
2022-10-07T18:24:58.555Z,2.67
2022-10-07T18:27:27.347Z,2.17
2022-10-07T18:29:55.987Z,3.00
2022-10-07T18:32:24.710Z,2.53
2022-10-07T18:34:52.659Z,2.03
2022-10-07T18:37:20.661Z,2.13
2022-10-07T18:39:50.434Z,3.92
2022-10-07T18:42:18.383Z,1.63
2022-10-07T18:44:46.311Z,1.80
2022-10-07T18:47:14.307Z,2.03
2022-10-07T18:49:42.685Z,3.00
2022-10-07T18:52:10.631Z,2.90
2022-10-07T18:54:38.619Z,2.15
2022-10-07T18:57:07.946Z,4.15
2022-10-07T18:59:35.847Z,2.53
2022-10-07T19:02:03.876Z,2.10
2022-10-07T19:04:31.895Z,2.28
2022-10-07T19:06:59.870Z,2.13
2022-10-07T19:09:27.775Z,3.35
2022-10-07T19:11:56.040Z,2.00
2022-10-07T19:14:26.029Z,2.40
2022-10-07T19:16:54.207Z,2.65
2022-10-07T19:19:23.927Z,1.87
2022-10-07T19:21:53.851Z,3.53
2022-10-07T19:24:42.536Z,2.72
2022-10-07T19:27:10.488Z,3.95
2022-10-07T19:29:40.227Z,2.00
2022-10-07T19:32:08.953Z,1.70
2022-10-07T19:34:37.206Z,2.92
2022-10-07T19:37:05.182Z,2.15
2022-10-07T19:39:33.214Z,1.42
2022-10-07T19:42:01.485Z,1.45
2022-10-07T19:44:29.505Z,2.03
2022-10-07T19:46:59.650Z,3.07
2022-10-07T19:49:28.519Z,1.47
2022-10-07T19:51:56.447Z,3.35
2022-10-07T19:54:24.382Z,2.65
2022-10-07T19:56:52.334Z,2.33
2022-10-07T19:59:20.228Z,1.75
2022-10-07T20:01:49.695Z,1.92
2022-10-07T20:04:21.149Z,2.17
2022-10-07T20:06:49.663Z,2.67
2022-10-07T20:09:19.164Z,2.35
2022-10-07T20:11:47.800Z,1.40
2022-10-07T20:14:16.125Z,5.18
2022-10-07T20:16:44.364Z,1.90
2022-10-07T20:19:15.670Z,1.85
2022-10-07T20:21:45.170Z,2.28
2022-10-07T20:24:15.245Z,1.92
2022-10-07T20:26:44.403Z,2.30
2022-10-07T20:29:13.875Z,2.05
2022-10-07T20:31:42.864Z,1.65
2022-10-07T20:34:14.844Z,2.42
2022-10-07T20:36:44.578Z,2.45
2022-10-07T20:39:49.614Z,1.70
2022-10-07T20:42:25.726Z,2.22
2022-10-07T20:44:54.411Z,3.67
2022-10-07T20:47:23.160Z,5.60
2022-10-07T20:49:51.787Z,2.80
2022-10-07T20:52:22.784Z,4.00
2022-10-07T20:54:52.115Z,1.90
2022-10-07T20:57:21.830Z,3.60
2022-10-07T20:59:50.074Z,6.10
2022-10-07T21:02:20.617Z,2.50
2022-10-07T21:04:48.803Z,3.23
2022-10-07T21:07:17.830Z,3.92
2022-10-07T21:09:47.887Z,3.72
2022-10-07T21:12:18.313Z,2.05
2022-10-07T21:14:47.994Z,3.47
2022-10-07T21:17:16.544Z,3.08
2022-10-07T21:19:44.790Z,2.08
2022-10-07T21:22:12.781Z,1.90
2022-10-07T21:24:42.851Z,2.38
2022-10-07T21:27:12.203Z,2.63
2022-10-07T21:29:41.170Z,2.60
2022-10-07T21:32:10.762Z,1.35
2022-10-07T21:34:39.515Z,2.05
2022-10-07T21:37:07.650Z,3.22
2022-10-07T21:39:35.561Z,2.53
2022-10-07T21:42:04.075Z,2.60
2022-10-07T21:44:34.795Z,2.80
2022-10-07T21:47:05.073Z,2.40
2022-10-07T21:49:33.123Z,2.13
2022-10-07T21:52:01.048Z,3.22
2022-10-07T21:54:30.299Z,3.27
2022-10-07T21:56:58.196Z,2.55
2022-10-07T21:59:26.197Z,3.22
2022-10-07T22:01:55.607Z,2.47
2022-10-07T22:04:24.400Z,3.53
2022-10-07T22:07:09.866Z,2.53
2022-10-07T22:09:37.873Z,1.70
2022-10-07T22:12:06.042Z,3.07
2022-10-07T22:14:34.002Z,3.27
2022-10-07T22:17:03.833Z,4.53
2022-10-07T22:19:31.789Z,3.95
2022-10-07T22:21:59.761Z,3.17
2022-10-07T22:24:27.731Z,2.28
2022-10-07T22:26:55.791Z,2.42
2022-10-07T22:29:24.618Z,3.15
2022-10-07T22:31:52.721Z,1.23
2022-10-07T22:34:42.056Z,1.65
2022-10-07T22:37:10.070Z,1.80
2022-10-07T22:39:37.930Z,2.90
2022-10-07T22:42:05.963Z,1.95
2022-10-07T22:44:33.871Z,2.80
2022-10-07T22:47:02.210Z,2.40
2022-10-07T22:49:31.455Z,1.98
2022-10-07T22:51:59.799Z,3.87
2022-10-07T22:59:24.133Z,2.08
2022-10-07T23:01:52.403Z,3.63
2022-10-07T23:04:21.590Z,2.10
2022-10-07T23:06:51.171Z,2.65
2022-10-07T23:09:19.215Z,4.90
2022-10-07T23:11:47.114Z,1.77
2022-10-07T23:14:15.099Z,2.15
2022-10-07T23:16:44.768Z,2.55
2022-10-07T23:19:12.968Z,1.73
2022-10-07T23:21:40.941Z,2.58
2022-10-07T23:24:11.683Z,3.10
2022-10-07T23:26:39.589Z,2.63
2022-10-07T23:29:08.636Z,2.45
2022-10-07T23:31:36.929Z,1.90
2022-10-07T23:34:06.368Z,1.15
2022-10-07T23:36:35.074Z,1.07
2022-10-07T23:39:03.195Z,1.40
2022-10-07T23:41:32.996Z,2.20
2022-10-07T23:44:02.976Z,1.47
2022-10-07T23:46:34.047Z,1.80
2022-10-07T23:49:02.451Z,2.92
2022-10-07T23:51:32.277Z,1.50
2022-10-07T23:54:02.446Z,1.70
2022-10-07T23:56:32.726Z,1.10
2022-10-07T23:59:01.661Z,2.22
